sensor_id;sensor_type;location;lat;lon;timestamp;pressure;altitude;pressure_sealevel;temperature;humidity
5996;BME280;3026;53.612;7.278;2023-09-18T00:01:20;100790.13;;;17.99;100.00
5996;BME280;3026;53.612;7.278;2023-09-18T00:03:47;100811.13;;;18.00;100.00
5996;BME280;3026;53.612;7.278;2023-09-18T00:06:13;100810.50;;;17.98;100.00
5996;BME280;3026;53.612;7.278;2023-09-18T00:08:41;100803.28;;;17.97;100.00
5996;BME280;3026;53.612;7.278;2023-09-18T00:11:07;100808.34;;;18.00;100.00
5996;BME280;3026;53.612;7.278;2023-09-18T00:13:37;100801.78;;;18.01;100.00
5996;BME280;3026;53.612;7.278;2023-09-18T00:16:09;100805.75;;;18.05;100.00
5996;BME280;3026;53.612;7.278;2023-09-18T00:18:38;100802.59;;;18.08;100.00
5996;BME280;3026;53.612;7.278;2023-09-18T00:21:06;100788.34;;;18.12;100.00
5996;BME280;3026;53.612;7.278;2023-09-18T00:23:36;100785.13;;;18.15;100.00
5996;BME280;3026;53.612;7.278;2023-09-18T00:26:03;100780.22;;;18.17;100.00
5996;BME280;3026;53.612;7.278;2023-09-18T00:28:30;100772.59;;;18.19;100.00
5996;BME280;3026;53.612;7.278;2023-09-18T00:30:57;100772.59;;;18.19;100.00
5996;BME280;3026;53.612;7.278;2023-09-18T00:33:25;100769.81;;;18.19;100.00
5996;BME280;3026;53.612;7.278;2023-09-18T00:35:53;100759.84;;;18.18;100.00
5996;BME280;3026;53.612;7.278;2023-09-18T00:38:20;100746.50;;;18.15;100.00
5996;BME280;3026;53.612;7.278;2023-09-18T00:40:47;100740.34;;;18.13;100.00
5996;BME280;3026;53.612;7.278;2023-09-18T00:43:14;100729.31;;;18.13;100.00
5996;BME280;3026;53.612;7.278;2023-09-18T00:45:42;100723.19;;;18.11;100.00
5996;BME280;3026;53.612;7.278;2023-09-18T00:48:12;100724.25;;;18.10;100.00
5996;BME280;3026;53.612;7.278;2023-09-18T00:50:41;100714.28;;;18.08;100.00
5996;BME280;3026;53.612;7.278;2023-09-18T00:53:08;100706.00;;;18.08;100.00
5996;BME280;3026;53.612;7.278;2023-09-18T00:55:36;100688.63;;;18.08;100.00
5996;BME280;3026;53.612;7.278;2023-09-18T00:58:05;100667.81;;;18.05;100.00
5996;BME280;3026;53.612;7.278;2023-09-18T01:00:32;100656.78;;;18.05;100.00
5996;BME280;3026;53.612;7.278;2023-09-18T01:03:00;100640.22;;;18.05;100.00
5996;BME280;3026;53.612;7.278;2023-09-18T01:05:30;100638.53;;;18.04;100.00
5996;BME280;3026;53.612;7.278;2023-09-18T01:08:00;100626.28;;;18.00;100.00
5996;BME280;3026;53.612;7.278;2023-09-18T01:10:32;100622.06;;;17.98;100.00
5996;BME280;3026;53.612;7.278;2023-09-18T01:13:04;100623.38;;;17.95;100.00
5996;BME280;3026;53.612;7.278;2023-09-18T01:15:35;100619.13;;;17.93;100.00
5996;BME280;3026;53.612;7.278;2023-09-18T01:18:04;100619.97;;;17.93;100.00
5996;BME280;3026;53.612;7.278;2023-09-18T01:20:31;100611.09;;;17.91;100.00
5996;BME280;3026;53.612;7.278;2023-09-18T01:23:00;100611.09;;;17.91;100.00
5996;BME280;3026;53.612;7.278;2023-09-18T01:25:30;100605.56;;;17.91;100.00
5996;BME280;3026;53.612;7.278;2023-09-18T01:27:57;100613.38;;;17.94;100.00
5996;BME280;3026;53.612;7.278;2023-09-18T01:30:26;100594.47;;;17.98;100.00
5996;BME280;3026;53.612;7.278;2023-09-18T01:32:54;100587.19;;;18.03;100.00
5996;BME280;3026;53.612;7.278;2023-09-18T01:35:23;100582.09;;;18.07;100.00
5996;BME280;3026;53.612;7.278;2023-09-18T01:37:55;100582.47;;;18.11;100.00
5996;BME280;3026;53.612;7.278;2023-09-18T01:40:24;100573.13;;;18.12;100.00
5996;BME280;3026;53.612;7.278;2023-09-18T01:42:52;100575.25;;;18.10;100.00
5996;BME280;3026;53.612;7.278;2023-09-18T01:45:18;100571.91;;;18.07;100.00
5996;BME280;3026;53.612;7.278;2023-09-18T01:47:46;100563.44;;;18.02;100.00
5996;BME280;3026;53.612;7.278;2023-09-18T01:50:13;100560.53;;;17.97;100.00
5996;BME280;3026;53.612;7.278;2023-09-18T01:52:43;100560.78;;;17.96;100.00
5996;BME280;3026;53.612;7.278;2023-09-18T01:55:10;100566.50;;;17.94;100.00
5996;BME280;3026;53.612;7.278;2023-09-18T01:57:39;100564.81;;;17.93;100.00
5996;BME280;3026;53.612;7.278;2023-09-18T02:00:09;100573.31;;;17.92;100.00
5996;BME280;3026;53.612;7.278;2023-09-18T02:02:37;100571.63;;;17.91;100.00
5996;BME280;3026;53.612;7.278;2023-09-18T02:05:05;100572.94;;;17.88;100.00
5996;BME280;3026;53.612;7.278;2023-09-18T02:07:33;100574.84;;;17.88;100.00
5996;BME280;3026;53.612;7.278;2023-09-18T02:10:02;100567.88;;;17.85;100.00
5996;BME280;3026;53.612;7.278;2023-09-18T02:12:29;100561.28;;;17.86;100.00
5996;BME280;3026;53.612;7.278;2023-09-18T02:14:57;100562.34;;;17.85;100.00
5996;BME280;3026;53.612;7.278;2023-09-18T02:17:29;100555.16;;;17.84;100.00
5996;BME280;3026;53.612;7.278;2023-09-18T02:19:58;100549.66;;;17.84;100.00
5996;BME280;3026;53.612;7.278;2023-09-18T02:22:27;100544.13;;;17.84;100.00
5996;BME280;3026;53.612;7.278;2023-09-18T02:24:54;100538.63;;;17.84;100.00
5996;BME280;3026;53.612;7.278;2023-09-18T02:27:22;100534.16;;;17.83;100.00
5996;BME280;3026;53.612;7.278;2023-09-18T02:29:49;100528.00;;;17.81;100.00
5996;BME280;3026;53.612;7.278;2023-09-18T02:32:20;100526.34;;;17.80;100.00
5996;BME280;3026;53.612;7.278;2023-09-18T02:34:48;100532.91;;;17.79;100.00
5996;BME280;3026;53.612;7.278;2023-09-18T02:37:17;100528.47;;;17.78;100.00
5996;BME280;3026;53.612;7.278;2023-09-18T02:39:44;100524.66;;;17.79;100.00
5996;BME280;3026;53.612;7.278;2023-09-18T02:42:11;100524.66;;;17.79;100.00
5996;BME280;3026;53.612;7.278;2023-09-18T02:44:38;100524.66;;;17.79;100.00
5996;BME280;3026;53.612;7.278;2023-09-18T02:47:05;100519.13;;;17.79;100.00
5996;BME280;3026;53.612;7.278;2023-09-18T02:49:34;100513.84;;;17.77;100.00
5996;BME280;3026;53.612;7.278;2023-09-18T02:52:02;100511.31;;;17.76;100.00
5996;BME280;3026;53.612;7.278;2023-09-18T02:54:29;100503.06;;;17.76;100.00
5996;BME280;3026;53.612;7.278;2023-09-18T02:56:56;100490.94;;;17.77;100.00
5996;BME280;3026;53.612;7.278;2023-09-18T02:59:23;100490.72;;;17.78;100.00
5996;BME280;3026;53.612;7.278;2023-09-18T03:01:50;100483.88;;;17.81;100.00
5996;BME280;3026;53.612;7.278;2023-09-18T03:04:17;100481.31;;;17.86;100.00
5996;BME280;3026;53.612;7.278;2023-09-18T03:06:46;100480.38;;;17.92;100.00
5996;BME280;3026;53.612;7.278;2023-09-18T03:09:14;100482.47;;;17.97;100.00
5996;BME280;3026;53.612;7.278;2023-09-18T03:11:42;100471.78;;;18.00;100.00
5996;BME280;3026;53.612;7.278;2023-09-18T03:14:11;100485.72;;;18.05;100.00
5996;BME280;3026;53.612;7.278;2023-09-18T03:16:38;100473.41;;;18.08;100.00
5996;BME280;3026;53.612;7.278;2023-09-18T03:19:05;100461.06;;;18.11;100.00
5996;BME280;3026;53.612;7.278;2023-09-18T03:21:32;100447.88;;;18.13;100.00
5996;BME280;3026;53.612;7.278;2023-09-18T03:24:02;100443.19;;;18.13;100.00
5996;BME280;3026;53.612;7.278;2023-09-18T03:26:29;100439.38;;;18.14;100.00
5996;BME280;3026;53.612;7.278;2023-09-18T03:28:57;100449.09;;;18.17;100.00
5996;BME280;3026;53.612;7.278;2023-09-18T03:31:25;100442.53;;;18.18;100.00
5996;BME280;3026;53.612;7.278;2023-09-18T03:33:52;100434.25;;;18.18;100.00
5996;BME280;3026;53.612;7.278;2023-09-18T03:36:21;100421.06;;;18.20;100.00
5996;BME280;3026;53.612;7.278;2023-09-18T03:38:48;100415.53;;;18.20;100.00
5996;BME280;3026;53.612;7.278;2023-09-18T03:41:16;100406.19;;;18.21;100.00
5996;BME280;3026;53.612;7.278;2023-09-18T03:43:43;100403.19;;;18.22;100.00
5996;BME280;3026;53.612;7.278;2023-09-18T03:46:11;100387.47;;;18.23;100.00
5996;BME280;3026;53.612;7.278;2023-09-18T03:48:40;100375.94;;;18.26;100.00
5996;BME280;3026;53.612;7.278;2023-09-18T03:51:08;100372.13;;;18.27;100.00
5996;BME280;3026;53.612;7.278;2023-09-18T03:53:35;100369.34;;;18.27;100.00
5996;BME280;3026;53.612;7.278;2023-09-18T03:56:03;100357.22;;;18.28;100.00
5996;BME280;3026;53.612;7.278;2023-09-18T03:58:31;100355.09;;;18.30;100.00
5996;BME280;3026;53.612;7.278;2023-09-18T04:01:04;100344.06;;;18.30;100.00
5996;BME280;3026;53.612;7.278;2023-09-18T04:03:32;100334.72;;;18.31;100.00
5996;BME280;3026;53.612;7.278;2023-09-18T04:05:59;100323.19;;;18.34;100.00
5996;BME280;3026;53.612;7.278;2023-09-18T04:08:26;100307.22;;;18.36;100.00
5996;BME280;3026;53.612;7.278;2023-09-18T04:10:54;100304.47;;;18.36;100.00
5996;BME280;3026;53.612;7.278;2023-09-18T04:13:23;100297.63;;;18.38;100.00
5996;BME280;3026;53.612;7.278;2023-09-18T04:15:52;100287.44;;;18.39;100.00
5996;BME280;3026;53.612;7.278;2023-09-18T04:18:27;100283.59;;;18.40;100.00
5996;BME280;3026;53.612;7.278;2023-09-18T04:20:54;100268.75;;;18.41;100.00
5996;BME280;3026;53.612;7.278;2023-09-18T04:23:23;100255.53;;;18.43;100.00
5996;BME280;3026;53.612;7.278;2023-09-18T04:25:52;100246.16;;;18.44;100.00
5996;BME280;3026;53.612;7.278;2023-09-18T04:28:21;100247.84;;;18.45;100.00
5996;BME280;3026;53.612;7.278;2023-09-18T04:30:49;100244.00;;;18.46;100.00
5996;BME280;3026;53.612;7.278;2023-09-18T04:33:19;100242.94;;;18.47;100.00
5996;BME280;3026;53.612;7.278;2023-09-18T04:35:47;100240.16;;;18.47;100.00
5996;BME280;3026;53.612;7.278;2023-09-18T04:38:16;100238.00;;;18.49;100.00
5996;BME280;3026;53.612;7.278;2023-09-18T04:40:44;100228.03;;;18.48;100.00
5996;BME280;3026;53.612;7.278;2023-09-18T04:43:11;100228.63;;;18.50;100.00
5996;BME280;3026;53.612;7.278;2023-09-18T04:45:39;100213.75;;;18.51;100.00
5996;BME280;3026;53.612;7.278;2023-09-18T04:48:06;100199.94;;;18.51;100.00
5996;BME280;3026;53.612;7.278;2023-09-18T04:50:35;100188.06;;;18.51;100.00
5996;BME280;3026;53.612;7.278;2023-09-18T04:53:02;100181.47;;;18.52;100.00
5996;BME280;3026;53.612;7.278;2023-09-18T04:55:31;100182.34;;;18.52;100.00
5996;BME280;3026;53.612;7.278;2023-09-18T04:57:58;100172.97;;;18.53;100.00
5996;BME280;3026;53.612;7.278;2023-09-18T05:00:25;100175.47;;;18.55;100.00
5996;BME280;3026;53.612;7.278;2023-09-18T05:02:55;100173.56;;;18.55;100.00
5996;BME280;3026;53.612;7.278;2023-09-18T05:05:22;100166.94;;;18.56;100.00
5996;BME280;3026;53.612;7.278;2023-09-18T05:07:53;100151.22;;;18.57;100.00
5996;BME280;3026;53.612;7.278;2023-09-18T05:10:21;100149.31;;;18.57;100.00
5996;BME280;3026;53.612;7.278;2023-09-18T05:12:48;100152.66;;;18.59;100.00
5996;BME280;3026;53.612;7.278;2023-09-18T05:15:16;100146.88;;;18.61;100.00
5996;BME280;3026;53.612;7.278;2023-09-18T05:17:44;100143.03;;;18.62;100.00
5996;BME280;3026;53.612;7.278;2023-09-18T05:20:13;100143.88;;;18.62;100.00
5996;BME280;3026;53.612;7.278;2023-09-18T05:22:41;100142.38;;;18.67;100.00
5996;BME280;3026;53.612;7.278;2023-09-18T05:25:11;100126.38;;;18.69;100.00
5996;BME280;3026;53.612;7.278;2023-09-18T05:27:40;100130.84;;;18.70;100.00
5996;BME280;3026;53.612;7.278;2023-09-18T05:30:11;100125.91;;;18.72;100.00
5996;BME280;3026;53.612;7.278;2023-09-18T05:32:41;100111.00;;;18.73;100.00
5996;BME280;3026;53.612;7.278;2023-09-18T05:35:08;100115.19;;;18.75;100.00
5996;BME280;3026;53.612;7.278;2023-09-18T05:37:38;100109.47;;;18.77;100.00
5996;BME280;3026;53.612;7.278;2023-09-18T05:40:06;100110.88;;;18.79;100.00
5996;BME280;3026;53.612;7.278;2023-09-18T05:42:36;100102.34;;;18.81;100.00
5996;BME280;3026;53.612;7.278;2023-09-18T05:45:05;100093.81;;;18.82;100.00
5996;BME280;3026;53.612;7.278;2023-09-18T05:47:32;100081.44;;;18.85;100.00
5996;BME280;3026;53.612;7.278;2023-09-18T05:50:01;100084.78;;;18.87;100.00
5996;BME280;3026;53.612;7.278;2023-09-18T05:52:30;100076.28;;;18.88;100.00
5996;BME280;3026;53.612;7.278;2023-09-18T05:54:56;100069.41;;;18.91;100.00
5996;BME280;3026;53.612;7.278;2023-09-18T05:57:23;100061.72;;;18.93;100.00
5996;BME280;3026;53.612;7.278;2023-09-18T05:59:52;100051.25;;;18.95;100.00
5996;BME280;3026;53.612;7.278;2023-09-18T06:02:19;100056.28;;;18.98;100.00
5996;BME280;3026;53.612;7.278;2023-09-18T06:04:46;100054.13;;;19.00;100.00
5996;BME280;3026;53.612;7.278;2023-09-18T06:07:13;100048.69;;;19.05;100.00
5996;BME280;3026;53.612;7.278;2023-09-18T06:09:40;100044.34;;;19.09;100.00
5996;BME280;3026;53.612;7.278;2023-09-18T06:12:08;100054.91;;;19.12;100.00
5996;BME280;3026;53.612;7.278;2023-09-18T06:14:36;100064.63;;;19.15;100.00
5996;BME280;3026;53.612;7.278;2023-09-18T06:17:06;100081.53;;;19.18;100.00
5996;BME280;3026;53.612;7.278;2023-09-18T06:19:35;100077.22;;;19.22;100.00
5996;BME280;3026;53.612;7.278;2023-09-18T06:22:03;100063.97;;;19.24;100.00
5996;BME280;3026;53.612;7.278;2023-09-18T06:24:31;100062.38;;;19.29;100.00
5996;BME280;3026;53.612;7.278;2023-09-18T06:26:58;100039.78;;;19.32;100.00
5996;BME280;3026;53.612;7.278;2023-09-18T06:29:25;100024.97;;;19.38;100.00
5996;BME280;3026;53.612;7.278;2023-09-18T06:31:55;100026.13;;;19.42;100.00
5996;BME280;3026;53.612;7.278;2023-09-18T06:34:24;100022.38;;;19.48;100.00
5996;BME280;3026;53.612;7.278;2023-09-18T06:36:51;100016.91;;;19.53;100.00
5996;BME280;3026;53.612;7.278;2023-09-18T06:39:18;100012.63;;;19.57;100.00
5996;BME280;3026;53.612;7.278;2023-09-18T06:41:45;100010.75;;;19.63;100.00
5996;BME280;3026;53.612;7.278;2023-09-18T06:44:12;100017.22;;;19.68;100.00
5996;BME280;3026;53.612;7.278;2023-09-18T06:46:39;100018.97;;;19.74;100.00
5996;BME280;3026;53.612;7.278;2023-09-18T06:49:07;100031.78;;;19.80;100.00
5996;BME280;3026;53.612;7.278;2023-09-18T06:51:35;100035.72;;;19.85;100.00
5996;BME280;3026;53.612;7.278;2023-09-18T06:54:04;100047.94;;;19.89;100.00
5996;BME280;3026;53.612;7.278;2023-09-18T06:56:32;100050.44;;;19.90;100.00
5996;BME280;3026;53.612;7.278;2023-09-18T06:58:59;100061.03;;;19.93;100.00
5996;BME280;3026;53.612;7.278;2023-09-18T07:01:26;100060.53;;;19.96;100.00
5996;BME280;3026;53.612;7.278;2023-09-18T07:03:53;100058.31;;;19.98;100.00
5996;BME280;3026;53.612;7.278;2023-09-18T07:06:21;100052.53;;;20.00;100.00
5996;BME280;3026;53.612;7.278;2023-09-18T07:08:50;100042.81;;;19.97;100.00
5996;BME280;3026;53.612;7.278;2023-09-18T07:11:18;100046.94;;;19.95;100.00
5996;BME280;3026;53.612;7.278;2023-09-18T07:13:45;100048.88;;;19.94;100.00
5996;BME280;3026;53.612;7.278;2023-09-18T07:16:12;100038.06;;;19.93;100.00
5996;BME280;3026;53.612;7.278;2023-09-18T07:18:39;100053.00;;;19.92;100.00
5996;BME280;3026;53.612;7.278;2023-09-18T07:21:06;100059.59;;;19.91;100.00
5996;BME280;3026;53.612;7.278;2023-09-18T07:23:34;100054.06;;;19.91;100.00
5996;BME280;3026;53.612;7.278;2023-09-18T07:26:03;100059.00;;;19.89;100.00
5996;BME280;3026;53.612;7.278;2023-09-18T07:28:31;100062.88;;;19.88;100.00
5996;BME280;3026;53.612;7.278;2023-09-18T07:31:04;100047.34;;;19.87;100.00
5996;BME280;3026;53.612;7.278;2023-09-18T07:33:32;100047.34;;;19.87;100.00
5996;BME280;3026;53.612;7.278;2023-09-18T07:35:58;100041.25;;;19.85;100.00
5996;BME280;3026;53.612;7.278;2023-09-18T07:38:25;100037.91;;;19.83;100.00
5996;BME280;3026;53.612;7.278;2023-09-18T07:40:52;100057.53;;;19.81;100.00
5996;BME280;3026;53.612;7.278;2023-09-18T07:43:21;100069.91;;;19.78;100.00
5996;BME280;3026;53.612;7.278;2023-09-18T07:45:49;100042.19;;;19.73;100.00
5996;BME280;3026;53.612;7.278;2023-09-18T07:48:16;100008.41;;;19.71;100.00
5996;BME280;3026;53.612;7.278;2023-09-18T07:50:45;100026.34;;;19.69;100.00
5996;BME280;3026;53.612;7.278;2023-09-18T07:53:15;100018.28;;;19.67;100.00
5996;BME280;3026;53.612;7.278;2023-09-18T07:55:42;100040.41;;;19.67;100.00
5996;BME280;3026;53.612;7.278;2023-09-18T07:58:09;100059.75;;;19.67;100.00
5996;BME280;3026;53.612;7.278;2023-09-18T08:00:38;100057.00;;;19.67;100.00
5996;BME280;3026;53.612;7.278;2023-09-18T08:03:06;100051.47;;;19.67;100.00
5996;BME280;3026;53.612;7.278;2023-09-18T08:05:32;100058.69;;;19.68;100.00
5996;BME280;3026;53.612;7.278;2023-09-18T08:08:00;100062.03;;;19.70;100.00
5996;BME280;3026;53.612;7.278;2023-09-18T08:10:30;100072.59;;;19.73;100.00
5996;BME280;3026;53.612;7.278;2023-09-18T08:12:57;100074.28;;;19.74;100.00
5996;BME280;3026;53.612;7.278;2023-09-18T08:15:24;100087.00;;;19.75;100.00
5996;BME280;3026;53.612;7.278;2023-09-18T08:17:53;100083.16;;;19.76;100.00
5996;BME280;3026;53.612;7.278;2023-09-18T08:20:22;100072.09;;;19.76;100.00
5996;BME280;3026;53.612;7.278;2023-09-18T08:22:51;100103.09;;;19.78;100.00
5996;BME280;3026;53.612;7.278;2023-09-18T08:25:18;100088.69;;;19.76;100.00
5996;BME280;3026;53.612;7.278;2023-09-18T08:27:46;100077.03;;;19.74;100.00
5996;BME280;3026;53.612;7.278;2023-09-18T08:30:14;100059.84;;;19.72;100.00
5996;BME280;3026;53.612;7.278;2023-09-18T08:32:43;100063.13;;;19.69;100.00
5996;BME280;3026;53.612;7.278;2023-09-18T08:35:12;100059.69;;;19.62;100.00
5996;BME280;3026;53.612;7.278;2023-09-18T08:37:40;100049.13;;;19.59;100.00
5996;BME280;3026;53.612;7.278;2023-09-18T08:40:10;100053.00;;;19.58;100.00
5996;BME280;3026;53.612;7.278;2023-09-18T08:42:44;100045.78;;;19.57;100.00
5996;BME280;3026;53.612;7.278;2023-09-18T08:45:15;100050.50;;;19.57;100.00
5996;BME280;3026;53.612;7.278;2023-09-18T08:47:46;100045.78;;;19.57;100.00
5996;BME280;3026;53.612;7.278;2023-09-18T08:50:15;100045.78;;;19.57;100.00
5996;BME280;3026;53.612;7.278;2023-09-18T08:52:44;100040.00;;;19.59;100.00
5996;BME280;3026;53.612;7.278;2023-09-18T08:55:12;100044.44;;;19.60;100.00
5996;BME280;3026;53.612;7.278;2023-09-18T08:57:42;100053.56;;;19.60;100.00
5996;BME280;3026;53.612;7.278;2023-09-18T09:00:11;100062.47;;;19.62;100.00
5996;BME280;3026;53.612;7.278;2023-09-18T09:02:42;100081.81;;;19.62;100.00
5996;BME280;3026;53.612;7.278;2023-09-18T09:05:10;100080.13;;;19.61;100.00
5996;BME280;3026;53.612;7.278;2023-09-18T09:07:38;100076.28;;;19.62;100.00
5996;BME280;3026;53.612;7.278;2023-09-18T09:10:06;100081.81;;;19.62;100.00
5996;BME280;3026;53.612;7.278;2023-09-18T09:12:51;100085.66;;;19.61;100.00
5996;BME280;3026;53.612;7.278;2023-09-18T09:15:19;100076.88;;;19.64;100.00
5996;BME280;3026;53.612;7.278;2023-09-18T09:17:46;100057.50;;;19.64;100.00
5996;BME280;3026;53.612;7.278;2023-09-18T09:20:15;100070.81;;;19.67;100.00
5996;BME280;3026;53.612;7.278;2023-09-18T09:22:45;100071.44;;;19.69;100.00
5996;BME280;3026;53.612;7.278;2023-09-18T09:25:23;100072.28;;;19.70;100.00
5996;BME280;3026;53.612;7.278;2023-09-18T09:27:52;100076.47;;;19.72;100.00
5996;BME280;3026;53.612;7.278;2023-09-18T09:30:20;100075.09;;;19.75;100.00
5996;BME280;3026;53.612;7.278;2023-09-18T09:32:50;100089.53;;;19.77;100.00
5996;BME280;3026;53.612;7.278;2023-09-18T09:35:22;100084.81;;;19.77;100.00
5996;BME280;3026;53.612;7.278;2023-09-18T09:37:51;100069.91;;;19.78;100.00
5996;BME280;3026;53.612;7.278;2023-09-18T09:40:20;100071.56;;;19.79;100.00
5996;BME280;3026;53.612;7.278;2023-09-18T09:42:47;100083.25;;;19.81;100.00
5996;BME280;3026;53.612;7.278;2023-09-18T09:45:19;100083.84;;;19.84;100.00
5996;BME280;3026;53.612;7.278;2023-09-18T09:47:48;100082.75;;;19.85;100.00
5996;BME280;3026;53.612;7.278;2023-09-18T09:50:19;100083.56;;;19.85;100.00
5996;BME280;3026;53.612;7.278;2023-09-18T09:52:48;100085.50;;;19.85;100.00
5996;BME280;3026;53.612;7.278;2023-09-18T09:55:37;100070.25;;;19.82;100.00
5996;BME280;3026;53.612;7.278;2023-09-18T09:58:07;100083.84;;;19.84;100.00
5996;BME280;3026;53.612;7.278;2023-09-18T10:00:39;100102.94;;;19.85;100.00
5996;BME280;3026;53.612;7.278;2023-09-18T10:03:10;100107.63;;;19.85;100.00
5996;BME280;3026;53.612;7.278;2023-09-18T10:05:39;100109.31;;;19.86;100.00
5996;BME280;3026;53.612;7.278;2023-09-18T10:08:11;100106.28;;;19.87;100.00
5996;BME280;3026;53.612;7.278;2023-09-18T10:10:44;100097.16;;;19.87;100.00
5996;BME280;3026;53.612;7.278;2023-09-18T10:13:17;100098.81;;;19.88;100.00
5996;BME280;3026;53.612;7.278;2023-09-18T10:15:45;100092.19;;;19.89;100.00
5996;BME280;3026;53.612;7.278;2023-09-18T10:18:27;100086.19;;;19.92;100.00
5996;BME280;3026;53.612;7.278;2023-09-18T10:21:05;100084.00;;;19.94;100.00
5996;BME280;3026;53.612;7.278;2023-09-18T10:23:41;100085.16;;;19.98;100.00
5996;BME280;3026;53.612;7.278;2023-09-18T10:26:18;100085.84;;;20.05;100.00
5996;BME280;3026;53.612;7.278;2023-09-18T10:28:50;100088.66;;;20.10;100.00
5996;BME280;3026;53.612;7.278;2023-09-18T10:31:22;100096.56;;;20.18;100.00
5996;BME280;3026;53.612;7.278;2023-09-18T10:33:50;100107.69;;;20.23;100.00
5996;BME280;3026;53.612;7.278;2023-09-18T10:36:19;100122.72;;;20.27;100.00
5996;BME280;3026;53.612;7.278;2023-09-18T10:38:50;100122.19;;;20.30;100.00
5996;BME280;3026;53.612;7.278;2023-09-18T10:41:20;100114.47;;;20.32;100.00
5996;BME280;3026;53.612;7.278;2023-09-18T10:43:47;100100.94;;;20.36;100.00
5996;BME280;3026;53.612;7.278;2023-09-18T10:46:16;100106.25;;;20.37;100.00
5996;BME280;3026;53.612;7.278;2023-09-18T10:48:44;100107.41;;;20.42;100.00
5996;BME280;3026;53.612;7.278;2023-09-18T10:51:13;100100.88;;;20.48;100.00
5996;BME280;3026;53.612;7.278;2023-09-18T10:53:40;100102.06;;;20.52;100.00
5996;BME280;3026;53.612;7.278;2023-09-18T10:56:09;100117.06;;;20.56;100.00
5996;BME280;3026;53.612;7.278;2023-09-18T10:58:39;100125.44;;;20.61;100.00
5996;BME280;3026;53.612;7.278;2023-09-18T11:01:06;100123.84;;;20.65;100.00
5996;BME280;3026;53.612;7.278;2023-09-18T11:03:34;100123.31;;;20.68;100.00
5996;BME280;3026;53.612;7.278;2023-09-18T11:06:04;100113.91;;;20.69;100.00
5996;BME280;3026;53.612;7.278;2023-09-18T11:08:34;100116.75;;;20.74;100.00
5996;BME280;3026;53.612;7.278;2023-09-18T11:11:03;100119.59;;;20.79;100.00
5996;BME280;3026;53.612;7.278;2023-09-18T11:13:43;100117.72;;;20.85;100.00
5996;BME280;3026;53.612;7.278;2023-09-18T11:16:19;100112.28;;;20.95;100.00
5996;BME280;3026;53.612;7.278;2023-09-18T11:19:17;100128.22;;;21.05;100.00
5996;BME280;3026;53.612;7.278;2023-09-18T11:21:45;100120.47;;;21.07;100.00
5996;BME280;3026;53.612;7.278;2023-09-18T11:24:18;100110.25;;;21.07;100.00
5996;BME280;3026;53.612;7.278;2023-09-18T11:26:48;100117.78;;;21.12;100.00
5996;BME280;3026;53.612;7.278;2023-09-18T11:29:21;100119.44;;;21.13;100.00
5996;BME280;3026;53.612;7.278;2023-09-18T11:31:51;100124.47;;;21.16;100.00
5996;BME280;3026;53.612;7.278;2023-09-18T11:34:20;100129.63;;;21.29;100.00
5996;BME280;3026;53.612;7.278;2023-09-18T11:36:48;100124.19;;;21.39;100.00
5996;BME280;3026;53.612;7.278;2023-09-18T11:39:34;100136.13;;;21.40;100.00
5996;BME280;3026;53.612;7.278;2023-09-18T11:42:10;100133.09;;;21.41;100.00
5996;BME280;3026;53.612;7.278;2023-09-18T11:44:41;100138.69;;;21.46;100.00
5996;BME280;3026;53.612;7.278;2023-09-18T11:47:12;100139.50;;;21.42;100.00
5996;BME280;3026;53.612;7.278;2023-09-18T11:49:47;100124.19;;;21.39;100.00
5996;BME280;3026;53.612;7.278;2023-09-18T11:52:17;100116.13;;;21.38;100.00
5996;BME280;3026;53.612;7.278;2023-09-18T11:54:45;100128.06;;;21.38;100.00
5996;BME280;3026;53.612;7.278;2023-09-18T11:57:13;100123.69;;;21.42;100.00
5996;BME280;3026;53.612;7.278;2023-09-18T11:59:44;100128.19;;;21.48;100.00
5996;BME280;3026;53.612;7.278;2023-09-18T12:02:13;100131.03;;;21.53;100.00
5996;BME280;3026;53.612;7.278;2023-09-18T12:04:46;100126.63;;;21.58;100.00
5996;BME280;3026;53.612;7.278;2023-09-18T12:07:14;100116.22;;;21.75;100.00
5996;BME280;3026;53.612;7.278;2023-09-18T12:09:41;100110.25;;;21.88;100.00
5996;BME280;3026;53.612;7.278;2023-09-18T12:12:11;100119.22;;;22.00;100.00
5996;BME280;3026;53.612;7.278;2023-09-18T12:14:40;100113.75;;;22.10;100.00
5996;BME280;3026;53.612;7.278;2023-09-18T12:17:16;100113.84;;;22.21;100.00
5996;BME280;3026;53.612;7.278;2023-09-18T12:19:51;100107.22;;;22.27;100.00
5996;BME280;3026;53.612;7.278;2023-09-18T12:22:23;100103.63;;;22.31;100.00
5996;BME280;3026;53.612;7.278;2023-09-18T12:24:50;100096.19;;;22.37;100.00
5996;BME280;3026;53.612;7.278;2023-09-18T12:27:19;100105.69;;;22.46;100.00
5996;BME280;3026;53.612;7.278;2023-09-18T12:29:46;100108.50;;;22.56;100.00
5996;BME280;3026;53.612;7.278;2023-09-18T12:32:15;100124.38;;;22.61;100.00
5996;BME280;3026;53.612;7.278;2023-09-18T12:34:42;100130.72;;;22.51;100.00
5996;BME280;3026;53.612;7.278;2023-09-18T12:37:12;100143.97;;;22.39;100.00
5996;BME280;3026;53.612;7.278;2023-09-18T12:39:40;100123.34;;;22.30;100.00
5996;BME280;3026;53.612;7.278;2023-09-18T12:42:07;100139.41;;;22.23;100.00
5996;BME280;3026;53.612;7.278;2023-09-18T12:44:36;100134.94;;;22.17;100.00
5996;BME280;3026;53.612;7.278;2023-09-18T12:47:05;100131.59;;;22.15;100.00
5996;BME280;3026;53.612;7.278;2023-09-18T12:49:34;100143.22;;;22.11;100.00
5996;BME280;3026;53.612;7.278;2023-09-18T12:52:04;100149.91;;;22.16;100.00
5996;BME280;3026;53.612;7.278;2023-09-18T12:54:39;100144.94;;;22.23;100.00
5996;BME280;3026;53.612;7.278;2023-09-18T12:57:07;100138.06;;;22.30;100.00
5996;BME280;3026;53.612;7.278;2023-09-18T12:59:41;100127.31;;;22.39;100.00
5996;BME280;3026;53.612;7.278;2023-09-18T13:02:08;100127.84;;;22.36;100.00
5996;BME280;3026;53.612;7.278;2023-09-18T13:04:37;100129.19;;;22.28;100.00
5996;BME280;3026;53.612;7.278;2023-09-18T13:07:06;100139.94;;;22.20;100.00
5996;BME280;3026;53.612;7.278;2023-09-18T13:09:34;100135.97;;;22.10;100.00